sensor_id;sensor_type;location;lat;lon;timestamp;temperature;humidity
17080;DHT22;8655;57.106;-2.088;2024-02-26T00:01:52;16.10;47.30
17080;DHT22;8655;57.106;-2.088;2024-02-26T00:04:18;16.10;47.30
17080;DHT22;8655;57.106;-2.088;2024-02-26T00:06:44;16.10;47.30
17080;DHT22;8655;57.106;-2.088;2024-02-26T00:09:09;16.10;47.30
17080;DHT22;8655;57.106;-2.088;2024-02-26T00:11:36;16.10;47.30
17080;DHT22;8655;57.106;-2.088;2024-02-26T00:14:02;16.10;47.30
17080;DHT22;8655;57.106;-2.088;2024-02-26T00:16:28;16.10;47.30
17080;DHT22;8655;57.106;-2.088;2024-02-26T00:18:54;16.00;47.20
17080;DHT22;8655;57.106;-2.088;2024-02-26T00:21:20;16.00;47.10
17080;DHT22;8655;57.106;-2.088;2024-02-26T00:23:45;16.00;47.10
17080;DHT22;8655;57.106;-2.088;2024-02-26T00:26:11;16.00;47.20
17080;DHT22;8655;57.106;-2.088;2024-02-26T00:28:37;16.00;47.10
17080;DHT22;8655;57.106;-2.088;2024-02-26T00:31:03;16.00;47.10
17080;DHT22;8655;57.106;-2.088;2024-02-26T00:33:29;16.00;47.10
17080;DHT22;8655;57.106;-2.088;2024-02-26T00:35:55;15.90;47.00
17080;DHT22;8655;57.106;-2.088;2024-02-26T00:38:20;15.90;47.00
17080;DHT22;8655;57.106;-2.088;2024-02-26T00:40:46;15.90;47.00
17080;DHT22;8655;57.106;-2.088;2024-02-26T00:43:12;15.90;47.00
17080;DHT22;8655;57.106;-2.088;2024-02-26T00:45:38;15.90;47.00
17080;DHT22;8655;57.106;-2.088;2024-02-26T00:48:04;15.90;47.00
17080;DHT22;8655;57.106;-2.088;2024-02-26T00:50:36;15.90;46.90
17080;DHT22;8655;57.106;-2.088;2024-02-26T00:53:02;15.90;46.90
17080;DHT22;8655;57.106;-2.088;2024-02-26T00:55:28;15.80;46.90
17080;DHT22;8655;57.106;-2.088;2024-02-26T00:57:54;15.80;46.90
17080;DHT22;8655;57.106;-2.088;2024-02-26T01:00:19;15.80;46.90
17080;DHT22;8655;57.106;-2.088;2024-02-26T01:02:45;15.80;46.90
17080;DHT22;8655;57.106;-2.088;2024-02-26T01:05:12;15.80;46.90
17080;DHT22;8655;57.106;-2.088;2024-02-26T01:07:38;15.80;46.90
17080;DHT22;8655;57.106;-2.088;2024-02-26T01:10:05;15.70;46.70
17080;DHT22;8655;57.106;-2.088;2024-02-26T01:12:32;15.70;46.70
17080;DHT22;8655;57.106;-2.088;2024-02-26T01:14:58;15.70;46.80
17080;DHT22;8655;57.106;-2.088;2024-02-26T01:17:24;15.70;46.70
17080;DHT22;8655;57.106;-2.088;2024-02-26T01:19:49;15.70;46.70
17080;DHT22;8655;57.106;-2.088;2024-02-26T01:22:15;15.70;46.70
17080;DHT22;8655;57.106;-2.088;2024-02-26T01:24:41;15.70;46.70
17080;DHT22;8655;57.106;-2.088;2024-02-26T01:27:06;15.70;46.70
17080;DHT22;8655;57.106;-2.088;2024-02-26T01:29:34;15.70;46.70
17080;DHT22;8655;57.106;-2.088;2024-02-26T01:32:00;15.70;46.70
17080;DHT22;8655;57.106;-2.088;2024-02-26T01:34:25;15.60;46.60
17080;DHT22;8655;57.106;-2.088;2024-02-26T01:36:51;15.60;46.60
17080;DHT22;8655;57.106;-2.088;2024-02-26T01:39:17;15.60;46.60
17080;DHT22;8655;57.106;-2.088;2024-02-26T01:41:43;15.60;46.60
17080;DHT22;8655;57.106;-2.088;2024-02-26T01:44:12;15.60;46.60
17080;DHT22;8655;57.106;-2.088;2024-02-26T01:46:38;15.60;46.50
17080;DHT22;8655;57.106;-2.088;2024-02-26T01:49:04;15.60;46.60
17080;DHT22;8655;57.106;-2.088;2024-02-26T01:51:31;15.50;46.50
17080;DHT22;8655;57.106;-2.088;2024-02-26T01:53:59;15.50;46.50
17080;DHT22;8655;57.106;-2.088;2024-02-26T01:56:26;15.50;46.50
17080;DHT22;8655;57.106;-2.088;2024-02-26T01:58:56;15.50;46.50
17080;DHT22;8655;57.106;-2.088;2024-02-26T02:01:24;15.50;46.50
17080;DHT22;8655;57.106;-2.088;2024-02-26T02:03:51;15.50;46.50
17080;DHT22;8655;57.106;-2.088;2024-02-26T02:06:17;15.50;46.40
17080;DHT22;8655;57.106;-2.088;2024-02-26T02:08:43;15.50;46.40
17080;DHT22;8655;57.106;-2.088;2024-02-26T02:11:09;15.40;46.30
17080;DHT22;8655;57.106;-2.088;2024-02-26T02:13:37;15.40;46.40
17080;DHT22;8655;57.106;-2.088;2024-02-26T02:16:03;15.40;46.30
17080;DHT22;8655;57.106;-2.088;2024-02-26T02:18:29;15.40;46.30
17080;DHT22;8655;57.106;-2.088;2024-02-26T02:20:55;15.40;46.30
17080;DHT22;8655;57.106;-2.088;2024-02-26T02:23:22;15.40;46.30
17080;DHT22;8655;57.106;-2.088;2024-02-26T02:25:48;15.40;46.30
17080;DHT22;8655;57.106;-2.088;2024-02-26T02:28:13;15.40;46.30
17080;DHT22;8655;57.106;-2.088;2024-02-26T02:30:40;15.30;46.20
17080;DHT22;8655;57.106;-2.088;2024-02-26T02:33:06;15.40;46.30
17080;DHT22;8655;57.106;-2.088;2024-02-26T02:35:32;15.30;46.10
17080;DHT22;8655;57.106;-2.088;2024-02-26T02:37:58;15.30;46.20
17080;DHT22;8655;57.106;-2.088;2024-02-26T02:40:24;15.30;46.20
17080;DHT22;8655;57.106;-2.088;2024-02-26T02:42:49;15.30;46.10
17080;DHT22;8655;57.106;-2.088;2024-02-26T02:45:15;15.30;46.10
17080;DHT22;8655;57.106;-2.088;2024-02-26T02:47:41;15.20;46.10
17080;DHT22;8655;57.106;-2.088;2024-02-26T02:50:07;15.20;46.00
17080;DHT22;8655;57.106;-2.088;2024-02-26T02:52:32;15.20;46.00
17080;DHT22;8655;57.106;-2.088;2024-02-26T02:54:58;15.20;46.00
17080;DHT22;8655;57.106;-2.088;2024-02-26T02:57:24;15.10;46.00
17080;DHT22;8655;57.106;-2.088;2024-02-26T02:59:50;15.10;46.00
17080;DHT22;8655;57.106;-2.088;2024-02-26T03:02:16;15.10;46.00
17080;DHT22;8655;57.106;-2.088;2024-02-26T03:04:41;15.10;46.00
17080;DHT22;8655;57.106;-2.088;2024-02-26T03:07:07;15.10;46.00
17080;DHT22;8655;57.106;-2.088;2024-02-26T03:09:33;15.00;45.90
17080;DHT22;8655;57.106;-2.088;2024-02-26T03:11:58;15.00;45.90
17080;DHT22;8655;57.106;-2.088;2024-02-26T03:14:24;15.00;45.90
17080;DHT22;8655;57.106;-2.088;2024-02-26T03:16:56;15.00;45.90
17080;DHT22;8655;57.106;-2.088;2024-02-26T03:19:21;15.00;45.90
17080;DHT22;8655;57.106;-2.088;2024-02-26T03:21:47;15.00;45.90
17080;DHT22;8655;57.106;-2.088;2024-02-26T03:24:13;15.00;45.90
17080;DHT22;8655;57.106;-2.088;2024-02-26T03:26:39;14.90;45.70
17080;DHT22;8655;57.106;-2.088;2024-02-26T03:29:05;14.90;45.80
17080;DHT22;8655;57.106;-2.088;2024-02-26T03:31:31;14.90;45.80
17080;DHT22;8655;57.106;-2.088;2024-02-26T03:33:57;14.80;45.70
17080;DHT22;8655;57.106;-2.088;2024-02-26T03:36:22;14.80;45.70
17080;DHT22;8655;57.106;-2.088;2024-02-26T03:38:48;14.80;45.70
17080;DHT22;8655;57.106;-2.088;2024-02-26T03:41:14;14.80;45.70
17080;DHT22;8655;57.106;-2.088;2024-02-26T03:43:40;14.80;45.70
17080;DHT22;8655;57.106;-2.088;2024-02-26T03:46:09;14.80;45.70
17080;DHT22;8655;57.106;-2.088;2024-02-26T03:48:36;14.70;45.60
17080;DHT22;8655;57.106;-2.088;2024-02-26T03:51:02;14.70;45.60
17080;DHT22;8655;57.106;-2.088;2024-02-26T03:53:28;14.70;45.60
17080;DHT22;8655;57.106;-2.088;2024-02-26T03:55:54;14.70;45.60
17080;DHT22;8655;57.106;-2.088;2024-02-26T03:58:21;14.60;45.60
17080;DHT22;8655;57.106;-2.088;2024-02-26T04:00:47;14.60;45.60
17080;DHT22;8655;57.106;-2.088;2024-02-26T04:03:15;14.60;46.20
17080;DHT22;8655;57.106;-2.088;2024-02-26T04:05:41;14.60;45.60
17080;DHT22;8655;57.106;-2.088;2024-02-26T04:08:07;14.60;45.60
17080;DHT22;8655;57.106;-2.088;2024-02-26T04:10:35;14.60;45.60
17080;DHT22;8655;57.106;-2.088;2024-02-26T04:13:03;14.60;45.60
17080;DHT22;8655;57.106;-2.088;2024-02-26T04:15:29;14.50;45.50
17080;DHT22;8655;57.106;-2.088;2024-02-26T04:17:55;14.50;45.50
17080;DHT22;8655;57.106;-2.088;2024-02-26T04:20:21;14.50;45.50
17080;DHT22;8655;57.106;-2.088;2024-02-26T04:22:47;14.50;45.50
17080;DHT22;8655;57.106;-2.088;2024-02-26T04:25:13;14.50;45.50
17080;DHT22;8655;57.106;-2.088;2024-02-26T04:27:39;14.50;45.50
17080;DHT22;8655;57.106;-2.088;2024-02-26T04:30:06;14.50;45.40
17080;DHT22;8655;57.106;-2.088;2024-02-26T04:32:32;14.40;45.40
17080;DHT22;8655;57.106;-2.088;2024-02-26T04:34:58;14.40;45.40
17080;DHT22;8655;57.106;-2.088;2024-02-26T04:37:23;14.40;45.40
17080;DHT22;8655;57.106;-2.088;2024-02-26T04:39:49;14.40;45.40
17080;DHT22;8655;57.106;-2.088;2024-02-26T04:42:15;14.40;45.40
17080;DHT22;8655;57.106;-2.088;2024-02-26T04:44:40;14.40;45.30
17080;DHT22;8655;57.106;-2.088;2024-02-26T04:47:06;14.40;45.40
17080;DHT22;8655;57.106;-2.088;2024-02-26T04:49:33;14.30;45.30
17080;DHT22;8655;57.106;-2.088;2024-02-26T04:51:59;14.30;45.40
17080;DHT22;8655;57.106;-2.088;2024-02-26T04:54:25;14.30;45.40
17080;DHT22;8655;57.106;-2.088;2024-02-26T04:56:50;14.30;45.40
17080;DHT22;8655;57.106;-2.088;2024-02-26T04:59:16;14.30;45.40
17080;DHT22;8655;57.106;-2.088;2024-02-26T05:01:42;14.30;45.40
17080;DHT22;8655;57.106;-2.088;2024-02-26T05:04:08;14.30;45.40
17080;DHT22;8655;57.106;-2.088;2024-02-26T05:06:36;14.30;45.40
17080;DHT22;8655;57.106;-2.088;2024-02-26T05:09:01;14.30;45.40
17080;DHT22;8655;57.106;-2.088;2024-02-26T05:11:29;14.30;45.40
17080;DHT22;8655;57.106;-2.088;2024-02-26T05:13:54;14.30;45.30
17080;DHT22;8655;57.106;-2.088;2024-02-26T05:16:20;14.30;45.30
17080;DHT22;8655;57.106;-2.088;2024-02-26T05:18:49;14.20;45.20
17080;DHT22;8655;57.106;-2.088;2024-02-26T05:21:15;14.20;45.30
17080;DHT22;8655;57.106;-2.088;2024-02-26T05:23:41;14.20;45.30
17080;DHT22;8655;57.106;-2.088;2024-02-26T05:26:09;14.20;45.30
17080;DHT22;8655;57.106;-2.088;2024-02-26T05:28:35;14.20;45.30
17080;DHT22;8655;57.106;-2.088;2024-02-26T05:31:02;14.20;45.30
17080;DHT22;8655;57.106;-2.088;2024-02-26T05:33:28;14.20;45.20
17080;DHT22;8655;57.106;-2.088;2024-02-26T05:35:54;14.10;45.20
17080;DHT22;8655;57.106;-2.088;2024-02-26T05:38:20;14.10;45.30
17080;DHT22;8655;57.106;-2.088;2024-02-26T05:40:46;14.10;45.30
17080;DHT22;8655;57.106;-2.088;2024-02-26T05:43:11;14.10;45.30
17080;DHT22;8655;57.106;-2.088;2024-02-26T05:45:40;14.10;45.30
17080;DHT22;8655;57.106;-2.088;2024-02-26T05:48:06;14.10;45.30
17080;DHT22;8655;57.106;-2.088;2024-02-26T05:50:32;14.10;45.30
17080;DHT22;8655;57.106;-2.088;2024-02-26T05:52:58;14.10;45.30
17080;DHT22;8655;57.106;-2.088;2024-02-26T05:55:23;14.00;45.20
17080;DHT22;8655;57.106;-2.088;2024-02-26T05:57:49;14.00;45.20
17080;DHT22;8655;57.106;-2.088;2024-02-26T06:00:15;14.00;45.20
17080;DHT22;8655;57.106;-2.088;2024-02-26T06:02:41;14.00;45.30
17080;DHT22;8655;57.106;-2.088;2024-02-26T06:05:06;14.00;45.30
17080;DHT22;8655;57.106;-2.088;2024-02-26T06:07:34;14.00;45.30
17080;DHT22;8655;57.106;-2.088;2024-02-26T06:10:00;14.00;45.30
17080;DHT22;8655;57.106;-2.088;2024-02-26T06:12:26;14.00;45.30
17080;DHT22;8655;57.106;-2.088;2024-02-26T06:14:54;14.00;45.30
17080;DHT22;8655;57.106;-2.088;2024-02-26T06:17:19;14.00;45.30
17080;DHT22;8655;57.106;-2.088;2024-02-26T06:19:45;14.00;45.30
17080;DHT22;8655;57.106;-2.088;2024-02-26T06:22:11;14.00;45.30
17080;DHT22;8655;57.106;-2.088;2024-02-26T06:24:37;14.00;45.30
17080;DHT22;8655;57.106;-2.088;2024-02-26T06:27:03;13.90;45.20
17080;DHT22;8655;57.106;-2.088;2024-02-26T06:29:29;13.90;45.20
17080;DHT22;8655;57.106;-2.088;2024-02-26T06:31:54;13.90;45.20
17080;DHT22;8655;57.106;-2.088;2024-02-26T06:34:21;14.00;45.30
17080;DHT22;8655;57.106;-2.088;2024-02-26T06:36:47;13.90;45.20
17080;DHT22;8655;57.106;-2.088;2024-02-26T06:39:12;13.90;45.20
17080;DHT22;8655;57.106;-2.088;2024-02-26T06:41:38;13.90;45.30
17080;DHT22;8655;57.106;-2.088;2024-02-26T06:44:05;13.90;45.30
17080;DHT22;8655;57.106;-2.088;2024-02-26T06:46:31;13.90;45.40
17080;DHT22;8655;57.106;-2.088;2024-02-26T06:48:57;13.90;45.40
17080;DHT22;8655;57.106;-2.088;2024-02-26T06:51:23;13.90;45.40
17080;DHT22;8655;57.106;-2.088;2024-02-26T06:53:49;14.00;45.50
17080;DHT22;8655;57.106;-2.088;2024-02-26T06:56:15;14.00;45.50
17080;DHT22;8655;57.106;-2.088;2024-02-26T06:58:40;14.00;45.50
17080;DHT22;8655;57.106;-2.088;2024-02-26T07:01:06;14.00;45.50
17080;DHT22;8655;57.106;-2.088;2024-02-26T07:03:34;14.00;45.60
17080;DHT22;8655;57.106;-2.088;2024-02-26T07:05:59;14.10;45.70
17080;DHT22;8655;57.106;-2.088;2024-02-26T07:08:25;14.10;45.80
17080;DHT22;8655;57.106;-2.088;2024-02-26T07:10:51;14.20;45.90
17080;DHT22;8655;57.106;-2.088;2024-02-26T07:13:17;14.20;45.90
17080;DHT22;8655;57.106;-2.088;2024-02-26T07:15:43;14.20;45.90
17080;DHT22;8655;57.106;-2.088;2024-02-26T07:18:08;14.30;46.10
17080;DHT22;8655;57.106;-2.088;2024-02-26T07:20:35;14.30;46.10
17080;DHT22;8655;57.106;-2.088;2024-02-26T07:23:01;14.30;46.10
17080;DHT22;8655;57.106;-2.088;2024-02-26T07:25:27;14.40;46.30
17080;DHT22;8655;57.106;-2.088;2024-02-26T07:27:52;14.40;46.30
17080;DHT22;8655;57.106;-2.088;2024-02-26T07:30:18;14.50;46.50
17080;DHT22;8655;57.106;-2.088;2024-02-26T07:32:44;14.50;46.50
17080;DHT22;8655;57.106;-2.088;2024-02-26T07:35:10;14.50;46.50
17080;DHT22;8655;57.106;-2.088;2024-02-26T07:37:36;14.60;46.60
17080;DHT22;8655;57.106;-2.088;2024-02-26T07:40:01;14.60;46.70
17080;DHT22;8655;57.106;-2.088;2024-02-26T07:42:28;14.70;46.80
17080;DHT22;8655;57.106;-2.088;2024-02-26T07:44:54;14.70;46.80
17080;DHT22;8655;57.106;-2.088;2024-02-26T07:47:21;14.80;47.00
17080;DHT22;8655;57.106;-2.088;2024-02-26T07:49:47;14.80;47.00
17080;DHT22;8655;57.106;-2.088;2024-02-26T07:52:12;14.90;47.10
17080;DHT22;8655;57.106;-2.088;2024-02-26T07:54:38;14.90;47.20
17080;DHT22;8655;57.106;-2.088;2024-02-26T07:57:04;15.00;47.30
17080;DHT22;8655;57.106;-2.088;2024-02-26T07:59:31;15.00;47.30
17080;DHT22;8655;57.106;-2.088;2024-02-26T08:01:57;15.00;47.30
17080;DHT22;8655;57.106;-2.088;2024-02-26T08:04:23;15.10;47.50
17080;DHT22;8655;57.106;-2.088;2024-02-26T08:06:48;15.10;47.50
17080;DHT22;8655;57.106;-2.088;2024-02-26T08:09:14;15.20;47.60
17080;DHT22;8655;57.106;-2.088;2024-02-26T08:11:40;15.20;47.60
17080;DHT22;8655;57.106;-2.088;2024-02-26T08:14:05;15.30;47.80
17080;DHT22;8655;57.106;-2.088;2024-02-26T08:16:31;15.30;47.70
17080;DHT22;8655;57.106;-2.088;2024-02-26T08:18:57;15.30;47.80
17080;DHT22;8655;57.106;-2.088;2024-02-26T08:21:23;15.40;47.90
17080;DHT22;8655;57.106;-2.088;2024-02-26T08:23:51;15.40;47.90
17080;DHT22;8655;57.106;-2.088;2024-02-26T08:26:16;15.50;48.00
17080;DHT22;8655;57.106;-2.088;2024-02-26T08:28:42;15.40;48.00
17080;DHT22;8655;57.106;-2.088;2024-02-26T08:31:08;15.50;48.10
17080;DHT22;8655;57.106;-2.088;2024-02-26T08:33:33;15.50;48.10
17080;DHT22;8655;57.106;-2.088;2024-02-26T08:36:04;15.60;48.30
17080;DHT22;8655;57.106;-2.088;2024-02-26T08:38:30;15.60;48.20
17080;DHT22;8655;57.106;-2.088;2024-02-26T08:40:56;15.70;48.40
17080;DHT22;8655;57.106;-2.088;2024-02-26T08:43:22;15.70;48.40
17080;DHT22;8655;57.106;-2.088;2024-02-26T08:45:47;15.70;48.40
17080;DHT22;8655;57.106;-2.088;2024-02-26T08:48:13;15.80;48.40
17080;DHT22;8655;57.106;-2.088;2024-02-26T08:50:39;15.80;48.50
17080;DHT22;8655;57.106;-2.088;2024-02-26T08:53:04;15.80;48.50
17080;DHT22;8655;57.106;-2.088;2024-02-26T08:55:31;15.90;48.50
17080;DHT22;8655;57.106;-2.088;2024-02-26T08:57:56;15.80;48.50
17080;DHT22;8655;57.106;-2.088;2024-02-26T09:00:22;15.90;48.50
17080;DHT22;8655;57.106;-2.088;2024-02-26T09:02:48;15.90;48.50
17080;DHT22;8655;57.106;-2.088;2024-02-26T09:05:14;15.90;48.50
17080;DHT22;8655;57.106;-2.088;2024-02-26T09:07:40;15.90;48.60
17080;DHT22;8655;57.106;-2.088;2024-02-26T09:10:07;15.90;48.50
17080;DHT22;8655;57.106;-2.088;2024-02-26T09:12:36;15.90;48.60
17080;DHT22;8655;57.106;-2.088;2024-02-26T09:15:02;15.90;48.60
17080;DHT22;8655;57.106;-2.088;2024-02-26T09:17:28;15.90;48.60
17080;DHT22;8655;57.106;-2.088;2024-02-26T09:19:54;15.90;49.10
17080;DHT22;8655;57.106;-2.088;2024-02-26T09:22:20;15.90;48.50
17080;DHT22;8655;57.106;-2.088;2024-02-26T09:24:45;15.90;48.50
17080;DHT22;8655;57.106;-2.088;2024-02-26T09:27:11;15.90;48.50
17080;DHT22;8655;57.106;-2.088;2024-02-26T09:29:37;15.90;48.50
17080;DHT22;8655;57.106;-2.088;2024-02-26T09:32:03;15.90;48.40
17080;DHT22;8655;57.106;-2.088;2024-02-26T09:34:29;15.90;48.40
17080;DHT22;8655;57.106;-2.088;2024-02-26T09:36:54;15.90;48.40
17080;DHT22;8655;57.106;-2.088;2024-02-26T09:39:20;15.90;48.40
17080;DHT22;8655;57.106;-2.088;2024-02-26T09:41:47;15.90;48.30
17080;DHT22;8655;57.106;-2.088;2024-02-26T09:44:19;15.90;48.30
17080;DHT22;8655;57.106;-2.088;2024-02-26T09:46:47;15.80;48.20
17080;DHT22;8655;57.106;-2.088;2024-02-26T09:49:15;15.80;48.30
17080;DHT22;8655;57.106;-2.088;2024-02-26T09:51:41;15.80;48.20
17080;DHT22;8655;57.106;-2.088;2024-02-26T09:54:09;15.80;48.30
17080;DHT22;8655;57.106;-2.088;2024-02-26T09:56:37;15.80;48.20
17080;DHT22;8655;57.106;-2.088;2024-02-26T09:59:07;15.70;48.10
17080;DHT22;8655;57.106;-2.088;2024-02-26T10:01:37;15.70;48.10
17080;DHT22;8655;57.106;-2.088;2024-02-26T10:04:04;15.70;48.10
17080;DHT22;8655;57.106;-2.088;2024-02-26T10:06:30;15.70;48.00
17080;DHT22;8655;57.106;-2.088;2024-02-26T10:08:56;15.70;48.00
17080;DHT22;8655;57.106;-2.088;2024-02-26T10:11:24;15.70;48.60
17080;DHT22;8655;57.106;-2.088;2024-02-26T10:13:50;15.70;48.00
17080;DHT22;8655;57.106;-2.088;2024-02-26T10:16:16;15.70;48.00
17080;DHT22;8655;57.106;-2.088;2024-02-26T10:18:52;15.70;47.90
17080;DHT22;8655;57.106;-2.088;2024-02-26T10:21:22;15.60;47.80
17080;DHT22;8655;57.106;-2.088;2024-02-26T10:23:48;15.60;47.80
17080;DHT22;8655;57.106;-2.088;2024-02-26T10:26:15;15.60;47.80
17080;DHT22;8655;57.106;-2.088;2024-02-26T10:28:45;15.60;47.80
17080;DHT22;8655;57.106;-2.088;2024-02-26T10:31:11;15.60;47.80
17080;DHT22;8655;57.106;-2.088;2024-02-26T10:33:39;15.50;47.60
17080;DHT22;8655;57.106;-2.088;2024-02-26T10:36:06;15.50;47.60
17080;DHT22;8655;57.106;-2.088;2024-02-26T10:38:33;15.50;47.60
17080;DHT22;8655;57.106;-2.088;2024-02-26T10:40:59;15.50;47.60
17080;DHT22;8655;57.106;-2.088;2024-02-26T10:43:26;15.50;47.60
17080;DHT22;8655;57.106;-2.088;2024-02-26T10:45:54;15.40;47.50
17080;DHT22;8655;57.106;-2.088;2024-02-26T10:48:21;15.40;47.50
17080;DHT22;8655;57.106;-2.088;2024-02-26T10:50:47;15.40;47.50
17080;DHT22;8655;57.106;-2.088;2024-02-26T10:53:17;15.40;47.50
17080;DHT22;8655;57.106;-2.088;2024-02-26T10:55:49;15.40;47.50
17080;DHT22;8655;57.106;-2.088;2024-02-26T10:58:18;15.30;47.40
17080;DHT22;8655;57.106;-2.088;2024-02-26T11:00:46;15.30;47.50
17080;DHT22;8655;57.106;-2.088;2024-02-26T11:03:14;15.30;47.40
17080;DHT22;8655;57.106;-2.088;2024-02-26T11:05:43;15.30;47.40
17080;DHT22;8655;57.106;-2.088;2024-02-26T11:08:11;15.30;47.40
17080;DHT22;8655;57.106;-2.088;2024-02-26T11:10:37;15.30;47.30
17080;DHT22;8655;57.106;-2.088;2024-02-26T11:13:05;15.30;47.30
17080;DHT22;8655;57.106;-2.088;2024-02-26T11:15:32;15.30;47.30
17080;DHT22;8655;57.106;-2.088;2024-02-26T11:17:59;15.30;47.30
17080;DHT22;8655;57.106;-2.088;2024-02-26T11:20:28;15.30;47.30
17080;DHT22;8655;57.106;-2.088;2024-02-26T11:22:55;15.30;47.30
17080;DHT22;8655;57.106;-2.088;2024-02-26T11:25:21;15.20;47.20
17080;DHT22;8655;57.106;-2.088;2024-02-26T11:27:51;15.20;47.20
17080;DHT22;8655;57.106;-2.088;2024-02-26T11:30:18;15.20;47.30
17080;DHT22;8655;57.106;-2.088;2024-02-26T11:32:45;15.20;47.20
17080;DHT22;8655;57.106;-2.088;2024-02-26T11:35:12;15.20;47.20
17080;DHT22;8655;57.106;-2.088;2024-02-26T11:37:41;15.20;47.20
17080;DHT22;8655;57.106;-2.088;2024-02-26T11:40:11;15.20;47.20
17080;DHT22;8655;57.106;-2.088;2024-02-26T11:42:44;15.20;47.20
17080;DHT22;8655;57.106;-2.088;2024-02-26T11:48:15;15.10;47.10
17080;DHT22;8655;57.106;-2.088;2024-02-26T11:50:47;15.10;47.10
17080;DHT22;8655;57.106;-2.088;2024-02-26T11:58:43;15.10;47.20
17080;DHT22;8655;57.106;-2.088;2024-02-26T12:01:41;15.10;47.10
17080;DHT22;8655;57.106;-2.088;2024-02-26T12:06:48;15.00;47.00
17080;DHT22;8655;57.106;-2.088;2024-02-26T12:09:40;15.00;47.00
17080;DHT22;8655;57.106;-2.088;2024-02-26T12:12:10;15.00;47.70
17080;DHT22;8655;57.106;-2.088;2024-02-26T12:14:40;15.00;47.10
17080;DHT22;8655;57.106;-2.088;2024-02-26T12:17:23;15.00;47.10
17080;DHT22;8655;57.106;-2.088;2024-02-26T12:19:49;15.00;47.00
17080;DHT22;8655;57.106;-2.088;2024-02-26T12:22:17;15.00;47.00
17080;DHT22;8655;57.106;-2.088;2024-02-26T12:24:45;15.00;47.00
17080;DHT22;8655;57.106;-2.088;2024-02-26T12:27:12;15.00;47.00
17080;DHT22;8655;57.106;-2.088;2024-02-26T12:29:38;15.00;47.00
17080;DHT22;8655;57.106;-2.088;2024-02-26T12:32:04;15.00;47.00
17080;DHT22;8655;57.106;-2.088;2024-02-26T12:34:31;15.00;47.00
17080;DHT22;8655;57.106;-2.088;2024-02-26T12:36:57;15.00;47.00
17080;DHT22;8655;57.106;-2.088;2024-02-26T12:39:22;15.00;47.00
17080;DHT22;8655;57.106;-2.088;2024-02-26T12:41:48;15.00;47.00
17080;DHT22;8655;57.106;-2.088;2024-02-26T12:44:18;15.00;47.00
17080;DHT22;8655;57.106;-2.088;2024-02-26T12:46:44;15.00;47.00
17080;DHT22;8655;57.106;-2.088;2024-02-26T12:49:15;15.00;47.00
17080;DHT22;8655;57.106;-2.088;2024-02-26T12:51:44;15.00;47.00
17080;DHT22;8655;57.106;-2.088;2024-02-26T12:54:10;15.00;47.00
17080;DHT22;8655;57.106;-2.088;2024-02-26T12:56:36;15.00;47.00
17080;DHT22;8655;57.106;-2.088;2024-02-26T12:59:02;15.00;47.00
17080;DHT22;8655;57.106;-2.088;2024-02-26T13:01:29;15.00;47.00
17080;DHT22;8655;57.106;-2.088;2024-02-26T13:03:55;15.00;47.10
17080;DHT22;8655;57.106;-2.088;2024-02-26T13:06:22;15.00;47.10
17080;DHT22;8655;57.106;-2.088;2024-02-26T13:08:48;15.00;47.00
17080;DHT22;8655;57.106;-2.088;2024-02-26T13:11:14;15.00;47.00
17080;DHT22;8655;57.106;-2.088;2024-02-26T13:13:40;15.00;47.00
17080;DHT22;8655;57.106;-2.088;2024-02-26T13:16:15;14.90;46.90
17080;DHT22;8655;57.106;-2.088;2024-02-26T13:18:41;14.90;47.00
17080;DHT22;8655;57.106;-2.088;2024-02-26T13:21:15;14.90;46.90
17080;DHT22;8655;57.106;-2.088;2024-02-26T13:23:42;14.90;47.00
17080;DHT22;8655;57.106;-2.088;2024-02-26T13:26:11;14.90;47.00
17080;DHT22;8655;57.106;-2.088;2024-02-26T13:28:37;14.90;47.00
17080;DHT22;8655;57.106;-2.088;2024-02-26T13:31:03;14.90;47.00
17080;DHT22;8655;57.106;-2.088;2024-02-26T13:33:31;14.90;47.00
17080;DHT22;8655;57.106;-2.088;2024-02-26T13:35:58;14.90;47.00
17080;DHT22;8655;57.106;-2.088;2024-02-26T13:38:24;14.90;46.90
17080;DHT22;8655;57.106;-2.088;2024-02-26T13:40:51;14.90;47.00
17080;DHT22;8655;57.106;-2.088;2024-02-26T13:43:17;14.90;47.00
17080;DHT22;8655;57.106;-2.088;2024-02-26T13:45:43;14.90;47.00
17080;DHT22;8655;57.106;-2.088;2024-02-26T13:48:10;14.90;47.00
17080;DHT22;8655;57.106;-2.088;2024-02-26T13:50:37;14.90;47.00
17080;DHT22;8655;57.106;-2.088;2024-02-26T13:53:03;14.90;47.00
17080;DHT22;8655;57.106;-2.088;2024-02-26T13:55:30;14.90;47.00
17080;DHT22;8655;57.106;-2.088;2024-02-26T13:57:57;14.90;47.00
17080;DHT22;8655;57.106;-2.088;2024-02-26T14:00:24;14.90;47.00
17080;DHT22;8655;57.106;-2.088;2024-02-26T14:02:53;14.90;47.00
17080;DHT22;8655;57.106;-2.088;2024-02-26T14:05:18;14.90;47.00
17080;DHT22;8655;57.106;-2.088;2024-02-26T14:07:44;14.90;47.00
17080;DHT22;8655;57.106;-2.088;2024-02-26T14:10:13;14.90;47.00
17080;DHT22;8655;57.106;-2.088;2024-02-26T14:12:39;14.90;47.60
17080;DHT22;8655;57.106;-2.088;2024-02-26T14:15:08;14.90;47.00
17080;DHT22;8655;57.106;-2.088;2024-02-26T14:17:35;14.90;47.00
17080;DHT22;8655;57.106;-2.088;2024-02-26T14:20:01;14.90;47.00
17080;DHT22;8655;57.106;-2.088;2024-02-26T14:22:27;14.90;47.00
17080;DHT22;8655;57.106;-2.088;2024-02-26T14:24:53;14.90;47.00
17080;DHT22;8655;57.106;-2.088;2024-02-26T14:27:19;14.90;47.00
17080;DHT22;8655;57.106;-2.088;2024-02-26T14:29:47;14.90;47.00
17080;DHT22;8655;57.106;-2.088;2024-02-26T14:32:13;14.90;47.00
17080;DHT22;8655;57.106;-2.088;2024-02-26T14:34:39;14.90;47.00
17080;DHT22;8655;57.106;-2.088;2024-02-26T14:37:05;14.90;47.00
17080;DHT22;8655;57.106;-2.088;2024-02-26T14:39:33;14.90;47.00
17080;DHT22;8655;57.106;-2.088;2024-02-26T14:42:00;14.90;47.00
17080;DHT22;8655;57.106;-2.088;2024-02-26T14:44:26;14.90;47.60
17080;DHT22;8655;57.106;-2.088;2024-02-26T14:46:52;14.90;47.00
17080;DHT22;8655;57.106;-2.088;2024-02-26T14:49:18;14.90;47.00
17080;DHT22;8655;57.106;-2.088;2024-02-26T14:51:44;14.90;47.00
17080;DHT22;8655;57.106;-2.088;2024-02-26T14:54:13;14.90;47.00
17080;DHT22;8655;57.106;-2.088;2024-02-26T14:56:39;14.90;47.00
17080;DHT22;8655;57.106;-2.088;2024-02-26T14:59:05;14.90;47.00
17080;DHT22;8655;57.106;-2.088;2024-02-26T15:01:31;14.90;47.00
17080;DHT22;8655;57.106;-2.088;2024-02-26T15:03:57;14.90;47.00
17080;DHT22;8655;57.106;-2.088;2024-02-26T15:06:23;14.90;47.00
17080;DHT22;8655;57.106;-2.088;2024-02-26T15:08:49;14.90;47.00
17080;DHT22;8655;57.106;-2.088;2024-02-26T15:11:15;14.90;47.00
17080;DHT22;8655;57.106;-2.088;2024-02-26T15:13:41;14.90;47.00
17080;DHT22;8655;57.106;-2.088;2024-02-26T15:16:07;14.90;47.00
17080;DHT22;8655;57.106;-2.088;2024-02-26T15:18:32;14.90;47.00
17080;DHT22;8655;57.106;-2.088;2024-02-26T15:20:58;14.90;47.00
17080;DHT22;8655;57.106;-2.088;2024-02-26T15:23:24;14.90;47.00
17080;DHT22;8655;57.106;-2.088;2024-02-26T15:25:50;14.90;47.10
17080;DHT22;8655;57.106;-2.088;2024-02-26T15:28:15;14.90;47.10
17080;DHT22;8655;57.106;-2.088;2024-02-26T15:30:41;14.90;47.10
17080;DHT22;8655;57.106;-2.088;2024-02-26T15:33:07;14.90;47.10
17080;DHT22;8655;57.106;-2.088;2024-02-26T15:35:34;14.90;47.70
17080;DHT22;8655;57.106;-2.088;2024-02-26T15:38:00;14.90;47.10